createdAt,value
2019-05-20T00:01:59.504Z,4.00
2019-05-20T00:04:31.071Z,4.22
2019-05-20T00:07:02.527Z,4.80
2019-05-20T00:09:33.948Z,4.03
2019-05-20T00:12:05.421Z,4.30
2019-05-20T00:14:36.979Z,3.98
2019-05-20T00:17:13.114Z,3.85
2019-05-20T00:19:45.177Z,4.15
2019-05-20T00:22:16.583Z,4.03
2019-05-20T00:24:48.185Z,3.92
2019-05-20T00:27:19.599Z,4.20
2019-05-20T00:29:51.573Z,4.35
2019-05-20T00:32:22.992Z,4.33
2019-05-20T00:34:54.440Z,3.77
2019-05-20T00:37:25.856Z,4.10
2019-05-20T00:39:57.365Z,3.80
2019-05-20T00:42:28.805Z,3.87
2019-05-20T00:45:00.333Z,3.70
2019-05-20T00:47:31.763Z,4.05
2019-05-20T00:50:03.532Z,4.30
2019-05-20T00:52:35.080Z,3.92
2019-05-20T00:55:08.238Z,4.42
2019-05-20T00:57:39.740Z,4.08
2019-05-20T01:00:11.381Z,3.87
2019-05-20T01:02:56.065Z,4.00
2019-05-20T01:05:16.747Z,4.05
2019-05-20T01:07:48.542Z,3.85
2019-05-20T01:10:21.208Z,4.47
2019-05-20T01:12:53.745Z,4.03
2019-05-20T01:15:26.092Z,4.10
2019-05-20T01:17:57.514Z,4.00
2019-05-20T01:20:29.032Z,3.70
2019-05-20T01:23:00.567Z,4.30
2019-05-20T01:25:32.043Z,4.20
2019-05-20T01:28:03.463Z,4.10
2019-05-20T01:30:34.948Z,3.98
2019-05-20T01:33:13.708Z,4.80
2019-05-20T01:35:39.491Z,4.08
2019-05-20T01:38:11.022Z,4.47
2019-05-20T01:40:43.438Z,4.33
2019-05-20T01:43:14.945Z,4.03
2019-05-20T01:45:46.438Z,4.22
2019-05-20T01:48:17.884Z,4.05
2019-05-20T01:50:49.372Z,4.00
2019-05-20T01:53:20.796Z,4.58
2019-05-20T01:55:52.306Z,4.60
2019-05-20T01:58:23.746Z,4.40
2019-05-20T02:00:55.166Z,4.33
2019-05-20T02:03:31.698Z,4.50
2019-05-20T02:05:59.864Z,4.10
2019-05-20T02:08:31.308Z,4.45
2019-05-20T02:11:02.799Z,4.53
2019-05-20T02:13:51.147Z,4.22
2019-05-20T02:16:24.262Z,4.53
2019-05-20T02:18:55.813Z,4.87
2019-05-20T02:21:27.556Z,4.37
2019-05-20T02:23:59.085Z,4.78
2019-05-20T02:26:31.588Z,4.22
2019-05-20T02:29:03.095Z,4.58
2019-05-20T02:31:34.600Z,4.67
2019-05-20T02:34:06.190Z,4.85
2019-05-20T02:36:37.717Z,4.35
2019-05-20T02:39:09.157Z,5.05
2019-05-20T02:41:40.595Z,4.30
2019-05-20T02:44:12.036Z,4.55
2019-05-20T02:46:45.006Z,4.47
2019-05-20T02:49:16.401Z,4.45
2019-05-20T02:51:47.877Z,4.35
2019-05-20T02:54:19.371Z,4.33
2019-05-20T02:56:50.903Z,4.90
2019-05-20T02:59:22.446Z,4.80
2019-05-20T03:01:53.925Z,4.58
2019-05-20T03:04:25.431Z,4.97
2019-05-20T03:06:56.943Z,5.03
2019-05-20T03:09:28.394Z,5.10
2019-05-20T03:11:59.908Z,4.95
2019-05-20T03:14:33.140Z,5.10
2019-05-20T03:17:05.713Z,5.15
2019-05-20T03:19:37.239Z,5.10
2019-05-20T03:22:08.729Z,4.67
2019-05-20T03:24:40.793Z,4.47
2019-05-20T03:27:12.374Z,5.47
2019-05-20T03:29:45.365Z,4.97
2019-05-20T03:32:18.950Z,5.37
2019-05-20T03:34:58.721Z,4.75
2019-05-20T03:37:23.556Z,5.37
2019-05-20T03:39:56.631Z,5.05
2019-05-20T03:42:28.253Z,5.30
2019-05-20T03:44:59.733Z,5.03
2019-05-20T03:47:31.153Z,4.97
2019-05-20T03:50:02.675Z,5.47
2019-05-20T03:52:34.104Z,5.10
2019-05-20T03:55:07.578Z,4.95
2019-05-20T03:57:39.074Z,5.42
2019-05-20T04:00:11.427Z,5.10
2019-05-20T04:02:42.969Z,4.80
2019-05-20T04:05:14.431Z,4.90
2019-05-20T04:07:46.044Z,5.00
2019-05-20T04:10:17.694Z,4.83
2019-05-20T04:12:49.439Z,5.35
2019-05-20T04:15:20.948Z,5.17
2019-05-20T04:17:52.530Z,4.53
2019-05-20T04:20:24.007Z,4.70
2019-05-20T04:22:55.528Z,4.50
2019-05-20T04:25:27.021Z,4.58
2019-05-20T04:27:58.837Z,4.87
2019-05-20T04:30:30.441Z,5.03
2019-05-20T04:33:01.935Z,3.92
2019-05-20T04:35:33.426Z,4.30
2019-05-20T04:38:06.136Z,4.80
2019-05-20T04:40:39.148Z,5.05
2019-05-20T04:43:10.773Z,4.65
2019-05-20T04:45:42.271Z,4.42
2019-05-20T04:48:14.173Z,4.28
2019-05-20T04:50:46.886Z,4.20
2019-05-20T04:53:18.334Z,4.58
2019-05-20T04:55:49.773Z,4.40
2019-05-20T04:58:21.265Z,4.33
2019-05-20T05:00:54.510Z,3.83
2019-05-20T05:03:25.958Z,4.45
2019-05-20T05:05:57.732Z,4.30
2019-05-20T05:08:29.226Z,4.80
2019-05-20T05:11:00.784Z,4.60
2019-05-20T05:13:32.314Z,4.30
2019-05-20T05:16:03.922Z,5.03
2019-05-20T05:18:35.515Z,4.28
2019-05-20T05:21:06.984Z,4.22
2019-05-20T05:23:38.558Z,4.30
2019-05-20T05:26:10.056Z,4.05
2019-05-20T05:28:41.627Z,4.08
2019-05-20T05:31:13.044Z,4.03
2019-05-20T05:33:44.505Z,4.35
2019-05-20T05:36:16.041Z,4.20
2019-05-20T05:38:47.548Z,4.08
2019-05-20T05:41:19.075Z,4.22
2019-05-20T05:43:50.590Z,4.28
2019-05-20T05:46:23.157Z,3.90
2019-05-20T05:48:54.733Z,4.80
2019-05-20T05:51:26.353Z,4.78
2019-05-20T05:53:57.883Z,4.25
2019-05-20T05:56:29.457Z,4.55
2019-05-20T05:59:00.886Z,5.20
2019-05-20T06:01:32.303Z,4.22
2019-05-20T06:04:04.775Z,3.83
2019-05-20T06:06:36.246Z,4.40
2019-05-20T06:09:07.962Z,4.12
2019-05-20T06:11:39.511Z,4.10
2019-05-20T06:14:11.051Z,4.00
2019-05-20T06:16:42.685Z,3.87
2019-05-20T06:19:14.173Z,3.90
2019-05-20T06:21:45.685Z,3.87
2019-05-20T06:24:17.206Z,4.60
2019-05-20T06:26:48.655Z,3.37
2019-05-20T06:29:21.820Z,4.05
2019-05-20T06:31:53.346Z,4.10
2019-05-20T06:34:24.949Z,4.55
2019-05-20T06:37:04.329Z,4.15
2019-05-20T06:39:36.513Z,3.33
2019-05-20T06:42:08.073Z,4.12
2019-05-20T06:44:52.344Z,3.70
2019-05-20T06:47:12.706Z,3.90
2019-05-20T06:49:44.148Z,3.75
2019-05-20T06:52:15.568Z,4.17
2019-05-20T06:54:47.193Z,3.60
2019-05-20T06:57:18.684Z,3.75
2019-05-20T06:59:50.049Z,3.83
2019-05-20T07:02:21.549Z,3.67
2019-05-20T07:04:53.088Z,3.62
2019-05-20T07:07:24.531Z,3.52
2019-05-20T07:09:55.962Z,3.35
2019-05-20T07:12:40.576Z,3.20
2019-05-20T07:15:02.280Z,3.55
2019-05-20T07:17:35.461Z,3.80
2019-05-20T07:20:09.893Z,3.65
2019-05-20T07:25:14.310Z,3.30
2019-05-20T07:27:47.320Z,3.33
2019-05-20T07:30:20.698Z,3.50
2019-05-20T07:32:52.216Z,3.30
2019-05-20T07:35:30.245Z,3.85
2019-05-20T07:37:57.096Z,3.20
2019-05-20T07:40:33.285Z,3.22
2019-05-20T07:43:06.248Z,3.62
2019-05-20T07:45:38.639Z,3.40
2019-05-20T07:48:10.268Z,3.20
2019-05-20T07:50:43.094Z,3.35
2019-05-20T07:53:16.592Z,2.50
2019-05-20T07:55:59.833Z,3.20
2019-05-20T07:58:34.224Z,3.40
2019-05-20T08:01:05.743Z,3.20
2019-05-20T08:03:38.691Z,2.65
2019-05-20T08:06:10.359Z,2.87
2019-05-20T08:08:42.192Z,3.00
2019-05-20T08:11:13.688Z,3.08
2019-05-20T08:13:45.094Z,2.60
2019-05-20T08:16:16.536Z,3.17
2019-05-20T08:18:48.082Z,3.08
2019-05-20T08:21:19.607Z,3.00
2019-05-20T08:23:51.105Z,3.33
2019-05-20T08:26:22.531Z,3.00
2019-05-20T08:28:54.070Z,3.30
2019-05-20T08:31:26.521Z,2.80
2019-05-20T08:33:59.067Z,2.60
2019-05-20T08:36:30.568Z,2.90
2019-05-20T08:39:02.073Z,2.65
2019-05-20T08:41:34.922Z,3.20
2019-05-20T08:44:06.472Z,3.20
2019-05-20T08:46:37.990Z,3.12
2019-05-20T08:49:11.278Z,3.50
2019-05-20T08:51:42.715Z,3.90
2019-05-20T08:54:14.116Z,2.98
2019-05-20T08:56:49.178Z,2.72
2019-05-20T08:59:18.662Z,2.92
2019-05-20T09:01:51.754Z,2.92
2019-05-20T09:04:23.311Z,3.15
2019-05-20T09:06:54.961Z,2.92
2019-05-20T09:09:27.337Z,2.90
2019-05-20T09:12:01.160Z,3.40
2019-05-20T09:14:32.630Z,3.40
2019-05-20T09:17:04.078Z,3.25
2019-05-20T09:19:35.562Z,3.27
2019-05-20T09:22:07.731Z,3.08
2019-05-20T09:24:39.657Z,2.90
2019-05-20T09:27:14.529Z,3.42
2019-05-20T09:29:46.242Z,3.42
2019-05-20T09:32:17.778Z,3.60
2019-05-20T09:34:49.798Z,3.25
2019-05-20T09:37:21.341Z,2.87
2019-05-20T09:39:53.312Z,3.40
2019-05-20T09:42:24.874Z,3.70
2019-05-20T09:44:56.342Z,3.60
2019-05-20T09:47:27.973Z,3.47
2019-05-20T09:49:59.517Z,3.33
2019-05-20T09:52:31.751Z,3.90
2019-05-20T09:55:04.157Z,3.85
2019-05-20T09:57:38.566Z,3.50
2019-05-20T10:00:12.781Z,3.58
2019-05-20T10:02:44.506Z,3.37
2019-05-20T10:05:18.871Z,3.65
2019-05-20T10:07:50.494Z,3.42
2019-05-20T10:10:22.139Z,3.40
2019-05-20T10:12:54.760Z,3.30
2019-05-20T10:15:26.336Z,3.30
2019-05-20T10:17:57.780Z,3.20
2019-05-20T10:20:29.290Z,3.30
2019-05-20T10:23:00.821Z,3.58
2019-05-20T10:25:32.228Z,3.25
2019-05-20T10:28:05.986Z,3.40
2019-05-20T10:30:37.449Z,3.55
2019-05-20T10:33:10.509Z,3.10
2019-05-20T10:35:42.093Z,3.10
2019-05-20T10:38:13.583Z,3.12
2019-05-20T10:40:45.049Z,3.35
2019-05-20T10:43:16.538Z,3.35
2019-05-20T10:45:47.971Z,3.47
2019-05-20T10:48:19.464Z,3.25
2019-05-20T10:50:50.980Z,3.33
2019-05-20T10:53:22.522Z,3.60
2019-05-20T10:55:54.122Z,2.95
2019-05-20T10:58:26.638Z,2.92
2019-05-20T11:01:03.489Z,3.10
2019-05-20T11:03:31.269Z,3.12
2019-05-20T11:06:03.136Z,3.37
2019-05-20T11:08:34.584Z,2.62
2019-05-20T11:11:06.112Z,2.60
2019-05-20T11:13:37.587Z,2.77
2019-05-20T11:16:09.402Z,2.90
2019-05-20T11:18:42.750Z,3.10
2019-05-20T11:21:14.356Z,2.70
2019-05-20T11:23:45.870Z,2.70
2019-05-20T11:26:17.377Z,2.95
2019-05-20T11:28:48.870Z,2.30
2019-05-20T11:31:20.302Z,3.22
2019-05-20T11:33:51.744Z,2.80
2019-05-20T11:36:24.667Z,3.15
2019-05-20T11:38:57.549Z,3.00
2019-05-20T11:41:52.250Z,3.10
2019-05-20T11:44:02.494Z,2.62
2019-05-20T11:46:35.175Z,2.70
2019-05-20T11:49:06.711Z,2.90
2019-05-20T11:51:39.317Z,3.10
2019-05-20T11:54:11.508Z,2.70
2019-05-20T11:56:49.262Z,2.58
2019-05-20T11:59:27.204Z,2.72
2019-05-20T12:01:58.815Z,2.25
2019-05-20T12:04:31.300Z,2.67
2019-05-20T12:07:04.154Z,1.87
2019-05-20T12:09:49.019Z,2.70
2019-05-20T12:12:09.240Z,2.55
2019-05-20T12:14:48.935Z,2.42
2019-05-20T12:17:25.218Z,2.45
2019-05-20T12:19:56.810Z,2.67
2019-05-20T12:22:30.992Z,2.47
2019-05-20T12:25:02.505Z,2.70
2019-05-20T12:27:35.085Z,2.50
2019-05-20T12:30:07.619Z,2.77
2019-05-20T12:32:39.139Z,2.70
2019-05-20T12:35:11.693Z,2.65
2019-05-20T12:37:45.604Z,2.50
2019-05-20T12:40:16.509Z,2.70
2019-05-20T12:42:47.952Z,2.30
2019-05-20T12:45:20.069Z,2.30
2019-05-20T12:47:51.585Z,2.30
2019-05-20T12:50:27.898Z,2.30
2019-05-20T12:53:01.285Z,2.15
2019-05-20T12:55:35.197Z,2.47
2019-05-20T12:58:06.756Z,2.35
2019-05-20T13:00:38.296Z,2.05
2019-05-20T13:03:15.493Z,2.40
2019-05-20T13:05:48.603Z,2.55
2019-05-20T13:08:20.433Z,2.33
2019-05-20T13:10:51.959Z,2.65
2019-05-20T13:13:25.084Z,2.75
2019-05-20T13:15:56.490Z,2.62
2019-05-20T13:18:28.516Z,2.37
2019-05-20T13:20:59.993Z,2.65
2019-05-20T13:23:31.921Z,2.67
2019-05-20T13:26:03.429Z,2.47
2019-05-20T13:28:34.870Z,2.00
2019-05-20T13:31:06.503Z,2.12
2019-05-20T13:33:39.436Z,2.22
2019-05-20T13:36:10.946Z,2.72
2019-05-20T13:38:42.547Z,2.22
2019-05-20T13:41:15.086Z,2.58
2019-05-20T13:43:46.989Z,1.95
2019-05-20T13:46:18.497Z,2.17
2019-05-20T13:48:51.129Z,2.10
2019-05-20T13:51:22.881Z,4.75
2019-05-20T13:53:54.402Z,2.35
2019-05-20T13:56:25.855Z,2.65
2019-05-20T13:58:57.268Z,2.17
2019-05-20T14:01:28.716Z,2.10
2019-05-20T14:04:00.152Z,2.30
2019-05-20T14:06:31.647Z,2.20
2019-05-20T14:09:07.469Z,1.90
2019-05-20T14:11:37.894Z,1.98
2019-05-20T14:14:09.555Z,1.82
2019-05-20T14:16:41.158Z,1.98
2019-05-20T14:19:12.695Z,2.17
2019-05-20T14:21:51.492Z,2.00
2019-05-20T14:24:24.047Z,2.05
2019-05-20T14:27:03.006Z,2.37
2019-05-20T14:29:34.610Z,1.90
2019-05-20T14:32:13.453Z,2.20
2019-05-20T14:34:47.360Z,2.15
2019-05-20T14:37:22.604Z,2.27
2019-05-20T14:39:55.756Z,2.20
2019-05-20T14:45:02.843Z,2.45
2019-05-20T14:47:36.686Z,2.20
2019-05-20T14:50:09.634Z,2.22
2019-05-20T14:52:41.135Z,2.05
2019-05-20T14:55:12.573Z,2.02
2019-05-20T14:57:44.663Z,2.10
2019-05-20T15:00:16.284Z,2.42
2019-05-20T15:02:50.537Z,2.22
2019-05-20T15:05:34.915Z,2.20
2019-05-20T15:08:20.126Z,2.05
2019-05-20T15:10:54.481Z,2.30
2019-05-20T15:13:29.575Z,2.30
2019-05-20T15:18:34.289Z,2.17
2019-05-20T15:21:08.714Z,2.22
2019-05-20T15:23:40.878Z,1.90
2019-05-20T15:26:14.110Z,2.30
2019-05-20T15:28:47.837Z,2.00
2019-05-20T15:31:20.476Z,2.10
2019-05-20T15:33:55.234Z,1.90
2019-05-20T15:36:28.252Z,2.30
2019-05-20T15:39:00.707Z,2.30
2019-05-20T15:41:34.422Z,2.00
2019-05-20T15:44:05.838Z,2.10
2019-05-20T15:46:37.351Z,2.37
2019-05-20T15:49:08.860Z,2.17
2019-05-20T15:51:44.146Z,2.20
2019-05-20T15:54:18.321Z,2.47
2019-05-20T15:56:52.441Z,2.75
2019-05-20T15:59:25.655Z,2.12
2019-05-20T16:01:57.209Z,2.33
2019-05-20T16:04:28.718Z,2.67
2019-05-20T16:07:00.536Z,2.30
2019-05-20T16:09:32.020Z,2.60
2019-05-20T16:12:03.615Z,2.35
2019-05-20T16:14:37.245Z,2.37
2019-05-20T16:17:08.869Z,3.70
2019-05-20T16:19:42.473Z,2.60
2019-05-20T16:22:15.568Z,2.60
2019-05-20T16:24:52.402Z,2.45
2019-05-20T16:27:32.643Z,2.40
2019-05-20T16:30:10.010Z,2.50
2019-05-20T16:32:43.604Z,2.60
2019-05-20T16:35:16.233Z,2.60
2019-05-20T16:37:47.658Z,2.47
2019-05-20T16:40:25.455Z,2.52
2019-05-20T16:43:01.383Z,3.02
2019-05-20T16:45:38.299Z,2.60
2019-05-20T16:48:10.222Z,2.80
2019-05-20T16:50:46.728Z,3.08
2019-05-20T16:53:18.267Z,2.90
2019-05-20T16:55:50.543Z,2.70
2019-05-20T16:58:22.148Z,3.05
2019-05-20T17:00:53.800Z,3.30
2019-05-20T17:03:25.422Z,2.87
2019-05-20T17:05:58.544Z,2.77
2019-05-20T17:08:30.550Z,3.08
2019-05-20T17:11:02.479Z,2.83
2019-05-20T17:13:46.309Z,2.67
2019-05-20T17:16:41.944Z,2.92
2019-05-20T17:19:16.349Z,2.90
2019-05-20T17:21:51.102Z,2.90
2019-05-20T17:24:25.814Z,3.30
2019-05-20T17:27:00.613Z,3.10
2019-05-20T17:29:39.351Z,3.10
2019-05-20T17:32:12.260Z,2.87
2019-05-20T17:34:50.029Z,2.87
2019-05-20T17:37:33.160Z,3.45
2019-05-20T17:40:13.875Z,3.30
2019-05-20T17:42:45.904Z,3.85
2019-05-20T17:45:21.188Z,3.20
2019-05-20T17:47:56.465Z,2.87
2019-05-20T17:50:28.704Z,3.20
2019-05-20T17:55:38.179Z,2.98
2019-05-20T17:58:09.975Z,2.98
2019-05-20T18:00:44.963Z,3.15
2019-05-20T18:03:17.676Z,3.12
2019-05-20T18:05:52.459Z,2.90
2019-05-20T18:08:26.594Z,3.00
2019-05-20T18:10:58.662Z,3.10
2019-05-20T18:13:30.532Z,3.05
2019-05-20T18:16:03.732Z,3.02
2019-05-20T18:18:36.163Z,3.27
2019-05-20T18:21:07.849Z,3.08
2019-05-20T18:23:40.818Z,3.02
2019-05-20T18:26:17.115Z,2.67
2019-05-20T18:28:52.113Z,2.98
2019-05-20T18:31:32.533Z,3.27
2019-05-20T18:34:00.731Z,3.02
2019-05-20T18:36:33.077Z,3.25
2019-05-20T18:39:11.169Z,3.20
2019-05-20T18:48:07.289Z,4.47
2019-05-20T18:50:47.351Z,4.70
2019-05-20T18:53:32.788Z,5.60
2019-05-20T18:56:04.744Z,5.03
2019-05-20T18:58:36.252Z,4.30
2019-05-20T19:01:09.529Z,4.30
2019-05-20T19:03:45.373Z,4.53
2019-05-20T19:06:17.418Z,4.37
2019-05-20T19:08:50.514Z,4.42
2019-05-20T19:11:24.774Z,4.42
2019-05-20T19:13:58.246Z,4.25
2019-05-20T19:16:37.846Z,4.28
2019-05-20T19:19:10.031Z,3.98
2019-05-20T19:21:45.418Z,3.80
2019-05-20T19:24:19.587Z,3.60
2019-05-20T19:26:52.184Z,4.00
2019-05-20T19:29:24.738Z,3.40
2019-05-20T19:32:01.815Z,3.12
2019-05-20T19:34:31.406Z,3.55
2019-05-20T19:37:03.909Z,3.52
2019-05-20T19:39:35.407Z,3.98
2019-05-20T19:42:07.033Z,3.77
2019-05-20T19:44:40.799Z,3.98
2019-05-20T19:47:18.469Z,3.58
2019-05-20T19:49:55.219Z,3.87
2019-05-20T19:52:37.939Z,3.65
2019-05-20T19:55:25.079Z,3.90
2019-05-20T19:58:26.428Z,4.10
2019-05-20T20:01:41.351Z,3.90
2019-05-20T20:04:33.012Z,3.87
2019-05-20T20:07:52.977Z,3.50
2019-05-20T20:10:29.065Z,3.67
2019-05-20T20:13:01.610Z,3.83
2019-05-20T20:15:33.111Z,4.08
2019-05-20T20:18:04.618Z,3.85
2019-05-20T20:20:36.128Z,4.05
2019-05-20T20:23:07.587Z,3.90
2019-05-20T20:25:41.784Z,3.83
2019-05-20T20:28:13.281Z,3.67
2019-05-20T20:30:44.774Z,3.92
2019-05-20T20:33:16.297Z,3.85
2019-05-20T20:35:47.844Z,4.08
2019-05-20T20:38:19.817Z,3.65
2019-05-20T20:40:54.318Z,3.50
2019-05-20T20:43:25.902Z,3.30
2019-05-20T20:46:01.197Z,3.70
2019-05-20T20:48:37.023Z,3.95
2019-05-20T20:51:15.460Z,3.95
2019-05-20T20:53:52.730Z,3.67
2019-05-20T20:56:25.742Z,3.83
2019-05-20T20:58:57.229Z,3.67
2019-05-20T21:01:28.658Z,3.58
2019-05-20T21:04:00.244Z,3.87
2019-05-20T21:06:31.749Z,3.70
2019-05-20T21:09:04.367Z,4.08
2019-05-20T21:11:37.516Z,4.12
2019-05-20T21:14:09.022Z,4.25
2019-05-20T21:16:40.449Z,4.20
2019-05-20T21:19:11.962Z,4.40
2019-05-20T21:21:43.506Z,4.17
2019-05-20T21:24:15.037Z,3.72
2019-05-20T21:26:46.533Z,3.90
2019-05-20T21:29:19.817Z,4.45
2019-05-20T21:31:51.396Z,4.22
2019-05-20T21:34:47.836Z,4.50
2019-05-20T21:37:20.566Z,4.55
2019-05-20T21:39:54.341Z,4.15
2019-05-20T21:42:25.730Z,4.80
2019-05-20T21:45:01.910Z,4.80
2019-05-20T21:47:33.258Z,4.60
2019-05-20T21:50:06.560Z,4.25
2019-05-20T21:52:54.600Z,4.53
2019-05-20T21:55:31.502Z,4.12
2019-05-20T21:58:08.978Z,4.78
2019-05-20T22:00:56.563Z,4.70
2019-05-20T22:06:02.822Z,4.78
2019-05-20T22:08:34.245Z,4.33
2019-05-20T22:11:05.752Z,4.65
2019-05-20T22:13:37.262Z,4.35
2019-05-20T22:16:08.754Z,4.10
2019-05-20T22:18:40.249Z,4.10
2019-05-20T22:21:14.872Z,4.50
2019-05-20T22:23:54.042Z,4.10
2019-05-20T22:26:25.525Z,4.20
2019-05-20T22:28:57.054Z,4.17
2019-05-20T22:31:28.679Z,4.33
2019-05-20T22:34:00.633Z,3.75
2019-05-20T22:36:32.585Z,4.47
2019-05-20T22:39:05.504Z,4.33
2019-05-20T22:41:36.921Z,4.28
2019-05-20T22:44:08.340Z,3.75
2019-05-20T22:46:39.854Z,4.58
2019-05-20T22:49:11.377Z,4.22
2019-05-20T22:51:42.908Z,4.33
2019-05-20T22:54:14.551Z,4.10
2019-05-20T22:56:49.150Z,4.35
2019-05-20T22:59:20.720Z,3.83
2019-05-20T23:01:52.732Z,3.90
2019-05-20T23:04:24.230Z,4.33
2019-05-20T23:06:56.685Z,4.08
2019-05-20T23:09:28.825Z,4.00
2019-05-20T23:12:03.465Z,4.37
2019-05-20T23:14:35.015Z,5.00
2019-05-20T23:17:06.455Z,4.00
2019-05-20T23:19:37.964Z,4.00
2019-05-20T23:22:09.748Z,3.65
2019-05-20T23:24:41.772Z,4.00
2019-05-20T23:27:28.558Z,4.00
2019-05-20T23:30:00.064Z,4.30
2019-05-20T23:32:31.497Z,4.00
2019-05-20T23:35:03.030Z,4.33
2019-05-20T23:37:35.059Z,3.70
2019-05-20T23:40:07.501Z,3.67
2019-05-20T23:42:38.888Z,4.10
2019-05-20T23:45:11.146Z,4.55
2019-05-20T23:47:42.556Z,3.95
2019-05-20T23:50:14.303Z,3.62
2019-05-20T23:52:46.048Z,4.12
2019-05-20T23:55:17.402Z,4.10
2019-05-20T23:57:50.546Z,3.98
